sensor_id;sensor_type;location;lat;lon;timestamp;P1;durP1;ratioP1;P2;durP2;ratioP2
20931;SDS011;10625;49.054;9.348;2022-07-19T04:54:39;49.60;;;8.17;;
20931;SDS011;10625;49.054;9.348;2022-07-19T04:57:06;38.77;;;7.40;;
20931;SDS011;10625;49.054;9.348;2022-07-19T04:59:34;27.90;;;6.87;;
20931;SDS011;10625;49.054;9.348;2022-07-19T05:02:01;27.07;;;6.23;;
20931;SDS011;10625;49.054;9.348;2022-07-19T05:04:28;21.83;;;6.47;;
20931;SDS011;10625;49.054;9.348;2022-07-19T05:06:56;11.87;;;4.87;;
20931;SDS011;10625;49.054;9.348;2022-07-19T05:09:26;16.53;;;4.40;;
20931;SDS011;10625;49.054;9.348;2022-07-19T05:11:54;10.87;;;5.03;;
20931;SDS011;10625;49.054;9.348;2022-07-19T05:14:21;10.97;;;3.87;;
20931;SDS011;10625;49.054;9.348;2022-07-19T05:16:49;15.03;;;4.60;;
20931;SDS011;10625;49.054;9.348;2022-07-19T05:19:17;12.00;;;3.67;;
20931;SDS011;10625;49.054;9.348;2022-07-19T05:21:44;9.77;;;3.50;;
20931;SDS011;10625;49.054;9.348;2022-07-19T05:24:11;6.27;;;3.17;;
20931;SDS011;10625;49.054;9.348;2022-07-19T05:26:39;7.43;;;3.73;;
20931;SDS011;10625;49.054;9.348;2022-07-19T05:29:06;5.13;;;3.37;;
20931;SDS011;10625;49.054;9.348;2022-07-19T05:31:33;6.50;;;3.40;;
20931;SDS011;10625;49.054;9.348;2022-07-19T05:34:00;4.30;;;3.07;;
20931;SDS011;10625;49.054;9.348;2022-07-19T05:36:28;5.20;;;3.20;;
20931;SDS011;10625;49.054;9.348;2022-07-19T05:38:55;5.50;;;3.33;;
20931;SDS011;10625;49.054;9.348;2022-07-19T05:41:22;6.87;;;3.03;;
20931;SDS011;10625;49.054;9.348;2022-07-19T05:43:50;4.63;;;3.10;;
20931;SDS011;10625;49.054;9.348;2022-07-19T05:46:18;5.47;;;3.20;;
20931;SDS011;10625;49.054;9.348;2022-07-19T05:48:46;4.67;;;3.17;;
20931;SDS011;10625;49.054;9.348;2022-07-19T05:51:14;4.20;;;3.40;;
20931;SDS011;10625;49.054;9.348;2022-07-19T05:53:41;7.03;;;2.90;;
20931;SDS011;10625;49.054;9.348;2022-07-19T05:56:08;6.27;;;3.10;;
20931;SDS011;10625;49.054;9.348;2022-07-19T05:58:36;4.20;;;2.97;;
20931;SDS011;10625;49.054;9.348;2022-07-19T06:01:03;4.47;;;3.13;;
20931;SDS011;10625;49.054;9.348;2022-07-19T06:03:46;3.90;;;3.00;;
20931;SDS011;10625;49.054;9.348;2022-07-19T06:06:14;3.57;;;2.90;;
20931;SDS011;10625;49.054;9.348;2022-07-19T06:08:42;12.67;;;4.00;;
20931;SDS011;10625;49.054;9.348;2022-07-19T06:11:10;4.53;;;3.40;;
20931;SDS011;10625;49.054;9.348;2022-07-19T06:13:37;6.87;;;3.30;;
20931;SDS011;10625;49.054;9.348;2022-07-19T06:16:05;4.83;;;3.23;;
20931;SDS011;10625;49.054;9.348;2022-07-19T06:18:32;5.13;;;2.80;;
20931;SDS011;10625;49.054;9.348;2022-07-19T06:21:10;5.50;;;2.90;;
20931;SDS011;10625;49.054;9.348;2022-07-19T06:23:38;3.37;;;2.60;;
20931;SDS011;10625;49.054;9.348;2022-07-19T06:26:06;3.20;;;2.80;;
20931;SDS011;10625;49.054;9.348;2022-07-19T06:28:34;3.10;;;2.80;;
20931;SDS011;10625;49.054;9.348;2022-07-19T06:31:01;3.03;;;2.63;;
20931;SDS011;10625;49.054;9.348;2022-07-19T06:33:28;7.17;;;3.00;;
20931;SDS011;10625;49.054;9.348;2022-07-19T06:35:55;6.13;;;3.10;;
20931;SDS011;10625;49.054;9.348;2022-07-19T06:38:23;5.23;;;2.67;;
20931;SDS011;10625;49.054;9.348;2022-07-19T06:40:50;5.63;;;2.70;;
20931;SDS011;10625;49.054;9.348;2022-07-19T06:43:17;6.63;;;3.23;;
20931;SDS011;10625;49.054;9.348;2022-07-19T06:45:44;3.73;;;2.57;;
20931;SDS011;10625;49.054;9.348;2022-07-19T06:48:12;3.30;;;2.53;;
20931;SDS011;10625;49.054;9.348;2022-07-19T06:50:39;6.73;;;2.50;;
20931;SDS011;10625;49.054;9.348;2022-07-19T06:53:06;3.67;;;2.40;;
20931;SDS011;10625;49.054;9.348;2022-07-19T06:56:51;3.20;;;2.10;;
20931;SDS011;10625;49.054;9.348;2022-07-19T06:59:19;5.27;;;2.50;;
20931;SDS011;10625;49.054;9.348;2022-07-19T07:01:47;7.03;;;2.90;;
20931;SDS011;10625;49.054;9.348;2022-07-19T07:04:15;6.47;;;2.80;;
20931;SDS011;10625;49.054;9.348;2022-07-19T07:06:42;5.70;;;2.90;;
20931;SDS011;10625;49.054;9.348;2022-07-19T07:09:09;7.73;;;3.23;;
20931;SDS011;10625;49.054;9.348;2022-07-19T07:11:37;3.27;;;2.63;;
20931;SDS011;10625;49.054;9.348;2022-07-19T07:14:04;4.50;;;2.90;;
20931;SDS011;10625;49.054;9.348;2022-07-19T07:16:31;3.80;;;2.90;;
20931;SDS011;10625;49.054;9.348;2022-07-19T07:18:58;3.33;;;2.87;;
20931;SDS011;10625;49.054;9.348;2022-07-19T07:21:26;6.57;;;2.83;;
20931;SDS011;10625;49.054;9.348;2022-07-19T07:23:53;6.00;;;2.97;;
20931;SDS011;10625;49.054;9.348;2022-07-19T07:26:20;4.07;;;2.30;;
20931;SDS011;10625;49.054;9.348;2022-07-19T07:28:47;3.47;;;2.70;;
20931;SDS011;10625;49.054;9.348;2022-07-19T07:31:14;4.03;;;2.70;;
20931;SDS011;10625;49.054;9.348;2022-07-19T07:33:42;3.10;;;2.33;;
20931;SDS011;10625;49.054;9.348;2022-07-19T07:36:09;3.47;;;3.17;;
20931;SDS011;10625;49.054;9.348;2022-07-19T07:38:36;3.17;;;2.33;;
20931;SDS011;10625;49.054;9.348;2022-07-19T07:41:04;3.37;;;2.10;;
20931;SDS011;10625;49.054;9.348;2022-07-19T07:43:31;3.07;;;2.27;;
20931;SDS011;10625;49.054;9.348;2022-07-19T07:45:59;2.70;;;2.50;;
20931;SDS011;10625;49.054;9.348;2022-07-19T07:48:26;2.47;;;2.27;;
20931;SDS011;10625;49.054;9.348;2022-07-19T07:50:53;3.60;;;3.30;;
20931;SDS011;10625;49.054;9.348;2022-07-19T07:55:25;4.93;;;3.03;;
20931;SDS011;10625;49.054;9.348;2022-07-19T07:57:52;4.53;;;2.23;;
20931;SDS011;10625;49.054;9.348;2022-07-19T08:00:20;3.30;;;2.63;;
20931;SDS011;10625;49.054;9.348;2022-07-19T08:02:47;3.70;;;2.23;;
20931;SDS011;10625;49.054;9.348;2022-07-19T08:05:15;2.30;;;2.10;;
20931;SDS011;10625;49.054;9.348;2022-07-19T08:07:43;2.40;;;1.90;;
20931;SDS011;10625;49.054;9.348;2022-07-19T08:10:10;2.57;;;2.00;;
20931;SDS011;10625;49.054;9.348;2022-07-19T08:12:37;3.93;;;2.40;;
20931;SDS011;10625;49.054;9.348;2022-07-19T08:15:05;4.07;;;2.20;;
20931;SDS011;10625;49.054;9.348;2022-07-19T08:17:32;3.53;;;2.27;;
20931;SDS011;10625;49.054;9.348;2022-07-19T08:19:59;2.47;;;1.80;;
20931;SDS011;10625;49.054;9.348;2022-07-19T08:22:27;2.50;;;2.30;;
20931;SDS011;10625;49.054;9.348;2022-07-19T08:24:55;2.80;;;2.20;;
20931;SDS011;10625;49.054;9.348;2022-07-19T08:27:22;4.67;;;2.47;;
20931;SDS011;10625;49.054;9.348;2022-07-19T08:29:49;4.83;;;2.23;;
20931;SDS011;10625;49.054;9.348;2022-07-19T08:33:01;2.50;;;2.30;;
20931;SDS011;10625;49.054;9.348;2022-07-19T08:35:30;2.67;;;2.30;;
20931;SDS011;10625;49.054;9.348;2022-07-19T08:37:57;4.07;;;2.47;;
20931;SDS011;10625;49.054;9.348;2022-07-19T08:40:24;2.20;;;2.00;;
20931;SDS011;10625;49.054;9.348;2022-07-19T08:42:52;3.97;;;2.37;;
20931;SDS011;10625;49.054;9.348;2022-07-19T08:45:20;3.93;;;2.13;;
20931;SDS011;10625;49.054;9.348;2022-07-19T08:47:49;2.67;;;2.10;;
20931;SDS011;10625;49.054;9.348;2022-07-19T08:50:16;3.40;;;1.97;;
20931;SDS011;10625;49.054;9.348;2022-07-19T08:52:44;3.20;;;1.90;;
20931;SDS011;10625;49.054;9.348;2022-07-19T08:55:11;4.13;;;2.10;;
20931;SDS011;10625;49.054;9.348;2022-07-19T08:57:39;2.40;;;2.20;;
20931;SDS011;10625;49.054;9.348;2022-07-19T09:00:24;3.07;;;2.40;;
20931;SDS011;10625;49.054;9.348;2022-07-19T09:02:56;2.37;;;2.00;;
20931;SDS011;10625;49.054;9.348;2022-07-19T09:05:24;4.80;;;1.80;;
20931;SDS011;10625;49.054;9.348;2022-07-19T09:10:29;2.50;;;2.10;;
20931;SDS011;10625;49.054;9.348;2022-07-19T09:13:04;2.87;;;1.90;;
20931;SDS011;10625;49.054;9.348;2022-07-19T09:15:38;2.20;;;1.83;;
20931;SDS011;10625;49.054;9.348;2022-07-19T09:18:06;1.87;;;1.73;;
20931;SDS011;10625;49.054;9.348;2022-07-19T09:20:34;2.17;;;1.87;;
20931;SDS011;10625;49.054;9.348;2022-07-19T09:23:01;4.23;;;2.07;;
20931;SDS011;10625;49.054;9.348;2022-07-19T09:25:32;2.73;;;2.03;;
20931;SDS011;10625;49.054;9.348;2022-07-19T09:28:00;3.93;;;2.17;;
20931;SDS011;10625;49.054;9.348;2022-07-19T09:30:33;4.20;;;2.10;;
20931;SDS011;10625;49.054;9.348;2022-07-19T09:33:22;2.30;;;1.90;;
20931;SDS011;10625;49.054;9.348;2022-07-19T09:35:35;2.87;;;2.07;;
20931;SDS011;10625;49.054;9.348;2022-07-19T09:38:13;3.30;;;1.87;;
20931;SDS011;10625;49.054;9.348;2022-07-19T09:40:41;2.13;;;1.93;;
20931;SDS011;10625;49.054;9.348;2022-07-19T09:43:08;3.77;;;1.80;;
20931;SDS011;10625;49.054;9.348;2022-07-19T09:45:35;2.73;;;2.17;;
20931;SDS011;10625;49.054;9.348;2022-07-19T09:48:03;2.97;;;2.07;;
20931;SDS011;10625;49.054;9.348;2022-07-19T09:50:30;2.07;;;1.90;;
20931;SDS011;10625;49.054;9.348;2022-07-19T09:52:58;2.43;;;1.87;;
20931;SDS011;10625;49.054;9.348;2022-07-19T09:55:26;3.03;;;2.30;;
20931;SDS011;10625;49.054;9.348;2022-07-19T09:57:55;3.50;;;1.90;;
20931;SDS011;10625;49.054;9.348;2022-07-19T10:00:23;2.17;;;1.90;;
20931;SDS011;10625;49.054;9.348;2022-07-19T10:02:52;2.73;;;2.00;;
20931;SDS011;10625;49.054;9.348;2022-07-19T10:05:20;3.93;;;1.97;;
20931;SDS011;10625;49.054;9.348;2022-07-19T10:07:47;2.80;;;1.63;;
20931;SDS011;10625;49.054;9.348;2022-07-19T10:10:15;3.63;;;2.23;;
20931;SDS011;10625;49.054;9.348;2022-07-19T10:12:44;5.13;;;2.27;;
20931;SDS011;10625;49.054;9.348;2022-07-19T10:15:12;2.63;;;2.23;;
20931;SDS011;10625;49.054;9.348;2022-07-19T10:17:47;2.57;;;2.37;;
20931;SDS011;10625;49.054;9.348;2022-07-19T10:20:11;2.70;;;1.87;;
20931;SDS011;10625;49.054;9.348;2022-07-19T10:22:40;1.97;;;1.87;;
20931;SDS011;10625;49.054;9.348;2022-07-19T10:25:11;2.57;;;1.93;;
20931;SDS011;10625;49.054;9.348;2022-07-19T10:27:42;2.17;;;1.90;;
20931;SDS011;10625;49.054;9.348;2022-07-19T10:32:41;3.97;;;2.00;;
20931;SDS011;10625;49.054;9.348;2022-07-19T10:35:18;2.50;;;2.20;;
20931;SDS011;10625;49.054;9.348;2022-07-19T10:37:50;2.67;;;2.30;;
20931;SDS011;10625;49.054;9.348;2022-07-19T10:43:13;3.50;;;2.23;;
20931;SDS011;10625;49.054;9.348;2022-07-19T10:46:23;5.00;;;2.50;;
20931;SDS011;10625;49.054;9.348;2022-07-19T10:48:13;3.27;;;2.53;;
20931;SDS011;10625;49.054;9.348;2022-07-19T10:50:45;3.43;;;2.40;;
20931;SDS011;10625;49.054;9.348;2022-07-19T10:53:10;2.50;;;2.30;;
20931;SDS011;10625;49.054;9.348;2022-07-19T10:55:37;2.27;;;2.00;;
20931;SDS011;10625;49.054;9.348;2022-07-19T11:00:44;4.77;;;2.50;;
20931;SDS011;10625;49.054;9.348;2022-07-19T11:05:51;4.93;;;2.60;;
20931;SDS011;10625;49.054;9.348;2022-07-19T11:08:32;4.27;;;2.87;;
20931;SDS011;10625;49.054;9.348;2022-07-19T11:11:06;2.50;;;2.30;;
20931;SDS011;10625;49.054;9.348;2022-07-19T11:13:34;2.57;;;2.37;;
20931;SDS011;10625;49.054;9.348;2022-07-19T11:16:02;4.90;;;2.50;;
20931;SDS011;10625;49.054;9.348;2022-07-19T11:18:30;3.63;;;2.67;;
20931;SDS011;10625;49.054;9.348;2022-07-19T11:20:58;4.17;;;2.67;;
20931;SDS011;10625;49.054;9.348;2022-07-19T11:23:28;3.63;;;2.57;;
20931;SDS011;10625;49.054;9.348;2022-07-19T11:26:06;4.47;;;2.73;;
20931;SDS011;10625;49.054;9.348;2022-07-19T11:28:34;4.87;;;2.23;;
20931;SDS011;10625;49.054;9.348;2022-07-19T11:31:21;5.23;;;2.67;;
20931;SDS011;10625;49.054;9.348;2022-07-19T11:33:50;4.23;;;2.77;;
20931;SDS011;10625;49.054;9.348;2022-07-19T11:36:19;4.63;;;2.20;;
20931;SDS011;10625;49.054;9.348;2022-07-19T11:38:47;3.57;;;2.30;;
20931;SDS011;10625;49.054;9.348;2022-07-19T11:41:25;3.57;;;2.40;;
20931;SDS011;10625;49.054;9.348;2022-07-19T11:43:53;2.90;;;2.60;;
20931;SDS011;10625;49.054;9.348;2022-07-19T11:46:25;4.97;;;2.70;;
20931;SDS011;10625;49.054;9.348;2022-07-19T11:49:00;3.53;;;2.20;;
20931;SDS011;10625;49.054;9.348;2022-07-19T11:51:24;3.13;;;2.47;;
20931;SDS011;10625;49.054;9.348;2022-07-19T11:53:52;4.43;;;2.50;;
20931;SDS011;10625;49.054;9.348;2022-07-19T11:56:21;5.17;;;2.57;;
20931;SDS011;10625;49.054;9.348;2022-07-19T11:58:49;4.63;;;2.67;;
20931;SDS011;10625;49.054;9.348;2022-07-19T12:01:23;3.43;;;2.40;;
20931;SDS011;10625;49.054;9.348;2022-07-19T12:04:02;3.13;;;2.07;;
20931;SDS011;10625;49.054;9.348;2022-07-19T12:06:42;4.07;;;2.50;;
20931;SDS011;10625;49.054;9.348;2022-07-19T12:09:10;3.07;;;2.70;;
20931;SDS011;10625;49.054;9.348;2022-07-19T12:13:09;2.73;;;2.40;;
20931;SDS011;10625;49.054;9.348;2022-07-19T12:15:47;5.13;;;2.63;;
20931;SDS011;10625;49.054;9.348;2022-07-19T12:18:10;5.50;;;2.63;;
20931;SDS011;10625;49.054;9.348;2022-07-19T12:20:39;3.53;;;2.40;;
20931;SDS011;10625;49.054;9.348;2022-07-19T12:23:13;3.17;;;2.33;;
20931;SDS011;10625;49.054;9.348;2022-07-19T12:25:41;4.37;;;2.83;;
20931;SDS011;10625;49.054;9.348;2022-07-19T12:28:08;4.40;;;2.60;;
20931;SDS011;10625;49.054;9.348;2022-07-19T12:30:36;4.53;;;2.70;;
20931;SDS011;10625;49.054;9.348;2022-07-19T12:33:10;5.63;;;2.53;;
20931;SDS011;10625;49.054;9.348;2022-07-19T12:35:41;3.73;;;2.50;;
20931;SDS011;10625;49.054;9.348;2022-07-19T12:38:09;5.30;;;3.20;;
20931;SDS011;10625;49.054;9.348;2022-07-19T12:40:38;6.67;;;3.60;;
20931;SDS011;10625;49.054;9.348;2022-07-19T12:43:06;8.83;;;5.47;;
20931;SDS011;10625;49.054;9.348;2022-07-19T12:45:34;11.53;;;7.03;;
20931;SDS011;10625;49.054;9.348;2022-07-19T12:48:03;8.40;;;7.13;;
20931;SDS011;10625;49.054;9.348;2022-07-19T12:50:31;8.47;;;6.10;;
20931;SDS011;10625;49.054;9.348;2022-07-19T12:52:59;5.23;;;4.03;;
20931;SDS011;10625;49.054;9.348;2022-07-19T12:55:27;4.83;;;3.47;;
20931;SDS011;10625;49.054;9.348;2022-07-19T12:57:55;4.07;;;3.50;;
20931;SDS011;10625;49.054;9.348;2022-07-19T13:00:23;3.97;;;2.87;;
20931;SDS011;10625;49.054;9.348;2022-07-19T13:02:51;3.33;;;2.80;;
20931;SDS011;10625;49.054;9.348;2022-07-19T13:05:19;3.67;;;2.60;;
20931;SDS011;10625;49.054;9.348;2022-07-19T13:07:46;5.90;;;3.10;;
20931;SDS011;10625;49.054;9.348;2022-07-19T13:10:14;4.23;;;3.00;;
20931;SDS011;10625;49.054;9.348;2022-07-19T13:12:42;5.73;;;2.80;;
20931;SDS011;10625;49.054;9.348;2022-07-19T13:15:10;4.63;;;2.90;;
20931;SDS011;10625;49.054;9.348;2022-07-19T13:17:37;4.70;;;2.83;;
20931;SDS011;10625;49.054;9.348;2022-07-19T13:20:05;4.13;;;2.90;;
20931;SDS011;10625;49.054;9.348;2022-07-19T13:22:36;3.23;;;2.90;;
20931;SDS011;10625;49.054;9.348;2022-07-19T13:25:04;3.87;;;2.83;;
20931;SDS011;10625;49.054;9.348;2022-07-19T13:27:32;4.40;;;3.43;;
20931;SDS011;10625;49.054;9.348;2022-07-19T13:29:59;5.57;;;3.67;;
20931;SDS011;10625;49.054;9.348;2022-07-19T13:32:26;5.57;;;3.17;;
20931;SDS011;10625;49.054;9.348;2022-07-19T13:34:53;4.57;;;2.73;;
20931;SDS011;10625;49.054;9.348;2022-07-19T13:37:21;3.73;;;3.17;;
20931;SDS011;10625;49.054;9.348;2022-07-19T13:39:48;4.57;;;2.87;;
20931;SDS011;10625;49.054;9.348;2022-07-19T13:42:15;5.13;;;3.13;;
20931;SDS011;10625;49.054;9.348;2022-07-19T13:44:42;4.17;;;3.20;;
20931;SDS011;10625;49.054;9.348;2022-07-19T13:47:10;4.90;;;3.10;;
20931;SDS011;10625;49.054;9.348;2022-07-19T13:49:37;4.33;;;3.17;;
20931;SDS011;10625;49.054;9.348;2022-07-19T13:52:04;3.40;;;3.10;;
20931;SDS011;10625;49.054;9.348;2022-07-19T13:54:32;6.60;;;3.40;;
20931;SDS011;10625;49.054;9.348;2022-07-19T13:56:59;4.20;;;3.43;;
20931;SDS011;10625;49.054;9.348;2022-07-19T13:59:26;3.93;;;2.43;;
20931;SDS011;10625;49.054;9.348;2022-07-19T14:01:55;7.17;;;3.27;;
20931;SDS011;10625;49.054;9.348;2022-07-19T14:04:23;4.53;;;2.53;;
20931;SDS011;10625;49.054;9.348;2022-07-19T14:06:50;7.70;;;3.47;;
20931;SDS011;10625;49.054;9.348;2022-07-19T14:09:17;4.07;;;3.07;;
20931;SDS011;10625;49.054;9.348;2022-07-19T14:11:45;6.43;;;3.20;;
20931;SDS011;10625;49.054;9.348;2022-07-19T14:14:12;5.47;;;3.40;;
20931;SDS011;10625;49.054;9.348;2022-07-19T14:16:40;5.40;;;3.33;;
20931;SDS011;10625;49.054;9.348;2022-07-19T14:19:07;4.80;;;3.37;;
20931;SDS011;10625;49.054;9.348;2022-07-19T14:21:34;5.07;;;3.53;;
20931;SDS011;10625;49.054;9.348;2022-07-19T14:24:02;3.93;;;3.10;;
20931;SDS011;10625;49.054;9.348;2022-07-19T14:26:29;6.13;;;3.10;;
20931;SDS011;10625;49.054;9.348;2022-07-19T14:28:57;4.30;;;3.00;;
20931;SDS011;10625;49.054;9.348;2022-07-19T14:31:24;3.60;;;3.23;;
20931;SDS011;10625;49.054;9.348;2022-07-19T14:33:51;4.03;;;2.93;;
20931;SDS011;10625;49.054;9.348;2022-07-19T14:36:19;3.63;;;3.00;;
20931;SDS011;10625;49.054;9.348;2022-07-19T14:38:46;3.83;;;3.13;;
20931;SDS011;10625;49.054;9.348;2022-07-19T14:41:14;3.93;;;2.80;;
20931;SDS011;10625;49.054;9.348;2022-07-19T14:43:41;3.50;;;2.67;;
20931;SDS011;10625;49.054;9.348;2022-07-19T14:46:08;4.97;;;3.43;;
20931;SDS011;10625;49.054;9.348;2022-07-19T14:48:35;5.30;;;3.20;;
20931;SDS011;10625;49.054;9.348;2022-07-19T14:51:03;5.63;;;2.90;;
20931;SDS011;10625;49.054;9.348;2022-07-19T14:53:30;4.03;;;3.20;;
20931;SDS011;10625;49.054;9.348;2022-07-19T14:55:57;7.73;;;3.13;;
20931;SDS011;10625;49.054;9.348;2022-07-19T14:58:25;5.00;;;2.80;;
20931;SDS011;10625;49.054;9.348;2022-07-19T15:00:52;9.97;;;3.80;;
20931;SDS011;10625;49.054;9.348;2022-07-19T15:03:19;6.63;;;3.00;;
20931;SDS011;10625;49.054;9.348;2022-07-19T15:05:47;3.27;;;2.90;;
20931;SDS011;10625;49.054;9.348;2022-07-19T15:08:14;3.53;;;3.17;;
20931;SDS011;10625;49.054;9.348;2022-07-19T15:10:41;6.20;;;3.40;;
20931;SDS011;10625;49.054;9.348;2022-07-19T15:13:09;5.03;;;3.57;;
20931;SDS011;10625;49.054;9.348;2022-07-19T15:15:36;4.10;;;3.23;;
20931;SDS011;10625;49.054;9.348;2022-07-19T15:18:03;4.00;;;3.60;;
20931;SDS011;10625;49.054;9.348;2022-07-19T15:20:32;7.70;;;3.50;;
20931;SDS011;10625;49.054;9.348;2022-07-19T15:22:59;5.83;;;3.90;;
20931;SDS011;10625;49.054;9.348;2022-07-19T15:25:27;4.03;;;3.17;;
20931;SDS011;10625;49.054;9.348;2022-07-19T15:27:54;5.87;;;3.80;;
20931;SDS011;10625;49.054;9.348;2022-07-19T15:30:21;4.13;;;3.60;;
20931;SDS011;10625;49.054;9.348;2022-07-19T15:32:48;9.63;;;3.90;;
20931;SDS011;10625;49.054;9.348;2022-07-19T15:35:16;7.10;;;4.33;;
20931;SDS011;10625;49.054;9.348;2022-07-19T15:37:43;6.83;;;3.87;;
20931;SDS011;10625;49.054;9.348;2022-07-19T15:40:10;5.93;;;3.57;;
20931;SDS011;10625;49.054;9.348;2022-07-19T15:42:42;5.17;;;3.53;;
20931;SDS011;10625;49.054;9.348;2022-07-19T15:45:10;5.27;;;3.13;;
20931;SDS011;10625;49.054;9.348;2022-07-19T15:47:37;5.47;;;3.10;;
20931;SDS011;10625;49.054;9.348;2022-07-19T15:50:05;5.47;;;3.10;;
20931;SDS011;10625;49.054;9.348;2022-07-19T15:52:34;4.73;;;3.00;;
20931;SDS011;10625;49.054;9.348;2022-07-19T15:55:07;4.70;;;2.90;;
20931;SDS011;10625;49.054;9.348;2022-07-19T15:57:31;6.57;;;3.43;;
20931;SDS011;10625;49.054;9.348;2022-07-19T15:59:58;5.07;;;3.07;;
20931;SDS011;10625;49.054;9.348;2022-07-19T16:02:25;7.10;;;3.37;;
20931;SDS011;10625;49.054;9.348;2022-07-19T16:04:53;4.93;;;3.17;;
20931;SDS011;10625;49.054;9.348;2022-07-19T16:07:20;7.13;;;3.53;;
20931;SDS011;10625;49.054;9.348;2022-07-19T16:09:47;4.67;;;3.23;;
20931;SDS011;10625;49.054;9.348;2022-07-19T16:12:15;4.63;;;3.20;;
20931;SDS011;10625;49.054;9.348;2022-07-19T16:14:42;3.47;;;2.80;;
20931;SDS011;10625;49.054;9.348;2022-07-19T16:17:09;8.07;;;3.53;;
20931;SDS011;10625;49.054;9.348;2022-07-19T16:19:36;3.83;;;3.20;;
20931;SDS011;10625;49.054;9.348;2022-07-19T16:22:04;7.87;;;3.37;;
20931;SDS011;10625;49.054;9.348;2022-07-19T16:24:31;4.30;;;3.00;;
20931;SDS011;10625;49.054;9.348;2022-07-19T16:26:58;8.53;;;3.33;;
20931;SDS011;10625;49.054;9.348;2022-07-19T16:29:25;6.27;;;3.57;;
20931;SDS011;10625;49.054;9.348;2022-07-19T16:31:53;5.63;;;3.40;;
20931;SDS011;10625;49.054;9.348;2022-07-19T16:34:20;5.10;;;3.60;;
20931;SDS011;10625;49.054;9.348;2022-07-19T16:36:47;6.47;;;3.57;;
20931;SDS011;10625;49.054;9.348;2022-07-19T16:39:15;6.77;;;3.70;;
20931;SDS011;10625;49.054;9.348;2022-07-19T16:41:42;8.47;;;3.87;;
20931;SDS011;10625;49.054;9.348;2022-07-19T16:44:43;7.30;;;3.80;;
20931;SDS011;10625;49.054;9.348;2022-07-19T16:47:10;6.13;;;4.07;;
20931;SDS011;10625;49.054;9.348;2022-07-19T16:49:37;5.57;;;3.57;;
20931;SDS011;10625;49.054;9.348;2022-07-19T16:52:05;7.47;;;4.10;;
20931;SDS011;10625;49.054;9.348;2022-07-19T16:54:33;7.93;;;4.20;;
20931;SDS011;10625;49.054;9.348;2022-07-19T16:57:00;5.80;;;3.70;;
20931;SDS011;10625;49.054;9.348;2022-07-19T16:59:27;8.83;;;4.27;;
20931;SDS011;10625;49.054;9.348;2022-07-19T17:01:55;5.53;;;4.00;;
20931;SDS011;10625;49.054;9.348;2022-07-19T17:04:22;8.57;;;4.50;;
20931;SDS011;10625;49.054;9.348;2022-07-19T17:06:52;8.57;;;4.20;;
20931;SDS011;10625;49.054;9.348;2022-07-19T17:09:19;5.57;;;3.70;;
20931;SDS011;10625;49.054;9.348;2022-07-19T17:11:46;7.83;;;3.70;;
20931;SDS011;10625;49.054;9.348;2022-07-19T17:14:14;6.13;;;3.30;;
20931;SDS011;10625;49.054;9.348;2022-07-19T17:16:41;7.20;;;4.10;;
20931;SDS011;10625;49.054;9.348;2022-07-19T17:19:09;6.27;;;3.40;;
20931;SDS011;10625;49.054;9.348;2022-07-19T17:21:37;5.77;;;3.67;;
20931;SDS011;10625;49.054;9.348;2022-07-19T17:24:04;5.80;;;3.77;;
20931;SDS011;10625;49.054;9.348;2022-07-19T17:26:32;4.93;;;3.70;;
20931;SDS011;10625;49.054;9.348;2022-07-19T17:28:59;5.03;;;3.17;;
20931;SDS011;10625;49.054;9.348;2022-07-19T17:31:26;5.77;;;3.43;;
20931;SDS011;10625;49.054;9.348;2022-07-19T17:33:53;5.17;;;3.50;;
20931;SDS011;10625;49.054;9.348;2022-07-19T17:36:21;7.90;;;3.63;;
20931;SDS011;10625;49.054;9.348;2022-07-19T17:38:49;6.50;;;3.70;;
20931;SDS011;10625;49.054;9.348;2022-07-19T17:41:17;4.63;;;3.47;;
20931;SDS011;10625;49.054;9.348;2022-07-19T17:43:44;5.97;;;3.20;;
20931;SDS011;10625;49.054;9.348;2022-07-19T17:46:12;5.70;;;2.90;;
20931;SDS011;10625;49.054;9.348;2022-07-19T17:48:40;3.47;;;2.97;;
20931;SDS011;10625;49.054;9.348;2022-07-19T17:51:07;6.37;;;3.43;;
20931;SDS011;10625;49.054;9.348;2022-07-19T17:53:35;5.73;;;3.47;;
20931;SDS011;10625;49.054;9.348;2022-07-19T17:56:02;6.33;;;3.10;;
20931;SDS011;10625;49.054;9.348;2022-07-19T17:58:29;6.10;;;3.53;;
20931;SDS011;10625;49.054;9.348;2022-07-19T18:00:56;8.87;;;3.50;;
20931;SDS011;10625;49.054;9.348;2022-07-19T18:03:24;5.33;;;3.30;;
20931;SDS011;10625;49.054;9.348;2022-07-19T18:05:51;8.97;;;3.20;;
20931;SDS011;10625;49.054;9.348;2022-07-19T18:08:18;6.10;;;3.20;;
20931;SDS011;10625;49.054;9.348;2022-07-19T18:10:45;13.17;;;3.80;;
20931;SDS011;10625;49.054;9.348;2022-07-19T18:13:13;6.03;;;3.33;;
20931;SDS011;10625;49.054;9.348;2022-07-19T18:15:40;3.97;;;3.10;;
20931;SDS011;10625;49.054;9.348;2022-07-19T18:18:07;8.47;;;3.07;;
20931;SDS011;10625;49.054;9.348;2022-07-19T18:20:34;15.07;;;4.20;;
20931;SDS011;10625;49.054;9.348;2022-07-19T18:23:02;17.23;;;4.80;;
20931;SDS011;10625;49.054;9.348;2022-07-19T18:25:29;12.23;;;4.13;;
20931;SDS011;10625;49.054;9.348;2022-07-19T18:27:56;23.67;;;6.03;;
20931;SDS011;10625;49.054;9.348;2022-07-19T18:30:24;15.27;;;4.57;;
20931;SDS011;10625;49.054;9.348;2022-07-19T18:32:51;13.80;;;4.17;;
20931;SDS011;10625;49.054;9.348;2022-07-19T18:35:18;11.07;;;4.10;;
20931;SDS011;10625;49.054;9.348;2022-07-19T18:37:45;7.90;;;3.73;;
20931;SDS011;10625;49.054;9.348;2022-07-19T18:40:13;6.57;;;3.13;;
20931;SDS011;10625;49.054;9.348;2022-07-19T18:42:40;6.60;;;3.33;;
20931;SDS011;10625;49.054;9.348;2022-07-19T18:45:08;7.13;;;2.77;;
20931;SDS011;10625;49.054;9.348;2022-07-19T18:47:36;9.87;;;3.73;;
20931;SDS011;10625;49.054;9.348;2022-07-19T18:50:04;11.97;;;4.03;;
20931;SDS011;10625;49.054;9.348;2022-07-19T18:52:31;17.30;;;4.53;;
20931;SDS011;10625;49.054;9.348;2022-07-19T18:54:58;10.20;;;3.70;;
20931;SDS011;10625;49.054;9.348;2022-07-19T18:57:26;9.37;;;3.77;;
20931;SDS011;10625;49.054;9.348;2022-07-19T18:59:53;8.17;;;3.23;;
20931;SDS011;10625;49.054;9.348;2022-07-19T19:02:20;8.77;;;3.97;;
20931;SDS011;10625;49.054;9.348;2022-07-19T19:04:48;4.57;;;2.87;;
20931;SDS011;10625;49.054;9.348;2022-07-19T19:07:18;7.37;;;3.50;;
20931;SDS011;10625;49.054;9.348;2022-07-19T19:09:46;6.97;;;3.20;;
20931;SDS011;10625;49.054;9.348;2022-07-19T19:12:13;3.83;;;2.87;;
20931;SDS011;10625;49.054;9.348;2022-07-19T19:14:41;5.20;;;3.30;;
20931;SDS011;10625;49.054;9.348;2022-07-19T19:17:08;4.93;;;2.87;;
20931;SDS011;10625;49.054;9.348;2022-07-19T19:19:35;15.30;;;4.13;;
20931;SDS011;10625;49.054;9.348;2022-07-19T19:22:02;8.60;;;3.33;;
20931;SDS011;10625;49.054;9.348;2022-07-19T19:24:30;8.13;;;3.40;;
20931;SDS011;10625;49.054;9.348;2022-07-19T19:26:57;7.27;;;3.17;;
20931;SDS011;10625;49.054;9.348;2022-07-19T19:29:24;4.83;;;2.60;;
20931;SDS011;10625;49.054;9.348;2022-07-19T19:31:54;5.17;;;3.30;;
20931;SDS011;10625;49.054;9.348;2022-07-19T19:34:21;3.87;;;3.00;;
20931;SDS011;10625;49.054;9.348;2022-07-19T19:36:50;6.00;;;2.80;;
20931;SDS011;10625;49.054;9.348;2022-07-19T19:39:17;3.50;;;2.77;;
20931;SDS011;10625;49.054;9.348;2022-07-19T19:41:44;4.93;;;2.63;;
20931;SDS011;10625;49.054;9.348;2022-07-19T19:44:12;5.10;;;2.80;;
20931;SDS011;10625;49.054;9.348;2022-07-19T19:46:39;4.30;;;2.93;;
20931;SDS011;10625;49.054;9.348;2022-07-19T19:49:06;4.60;;;3.03;;
20931;SDS011;10625;49.054;9.348;2022-07-19T19:51:33;3.90;;;3.07;;
